Aérodrome :
LOGIN :

S'inscrire | Disclaimer

   EN    FR    IT 

 










Légende :    VFR   VFR Marginal   IFR   IFR Intensif   IFR Très Intensif
Visi : 
Plafond : 
>= 8 km
>= 3000ft
5 à 8 km
1000 à 3000 ft
1500m à 5 km
500 à 1000 ft
800 à 1500m
200 à 500 ft
< 800m
< 200 ft
Symboles :   Orages  Brouillard  Fortes neiges  Fortes précipitations  Vent > 20 kt
SIGMETs :   Divers  Orages  Givrage  Turbulence  Onde Orograph.  Cendres Volcan.







- Altitude de l'aérodrome : 37 ft


EHVL - Vlieland Heliport

DERNIER METAR :
  • 211355Z AUTO 26014KT 6000 BR OVC006 08/07 Q1024 YLO

METARs EXPIRÉS :
  • 211329Z AUTO 25016KT 7000 BR OVC006 08/08 Q1024 YLO
  • 211325Z AUTO 25015KT 7000 BR OVC007 08/07 Q1024 GRN
  • 211255Z AUTO 25016KT 7000 BR OVC011 08/08 Q1024 GRN
  • 211239Z AUTO 25015KT 7000 BR BKN012 OVC016 08/08 Q1024 GRN
  • 211225Z AUTO 25015KT 7000 BR BKN014 OVC016 08/07 Q1024 GRN
  • 211206Z AUTO 25016KT 7000 BR OVC014 08/08 Q1024 GRN
  • 211205Z AUTO 25016KT 7000 BR OVC015 08/07 Q1024 WHT
  • 211155Z AUTO 25016KT 7000 BR OVC015 08/08 Q1024 WHT
  • 211126Z AUTO 25015KT 6000 BR FEW010 OVC015 08/08 Q1023 WHT
  • 211125Z AUTO 25016KT 6000 BR FEW010 OVC014 08/08 Q1023 GRN
  • 211108Z AUTO 25018KT 4200 BR FEW002 SCT009 BKN010 08/08 Q1023 GRN

Prévision TAF périmée.
Pas de NOTAMs connus pour ce terrain.



MET'MAP, la Météo Aéronautique d'un coup d'oeil ! - Copyright ORBIFLY Décembre 2007 - Disclaimer

ORBIFLY MET'MAP TEAM :

Programmation & Développement : Alexandra Zaïnal
Conception & Développement : Baudouin d'Aumeries
Co-Programmation & Développement : Marc-Olivier Méhu
Soutien technique & logistique : Manuel Goepfert

Contact : metmap@orbifly.com




SOURCES & CREDITS :

   NOAA